• Join FlightAware (Why Join?)
  • Login
  • US Flag 
02:29PM EDT


 

Airport Tracker/Info


-or-


 

Live Flight TrackerFlight Track Log ✈ DAL1941 ✈ 25-Jun-2013 ✈ KMHT - KATL

Flight Track Log - Related Links

Times and Time Zones

All times are in EDT time to prevent confusion due to time zone crossing. See the DAL1941 flight status page for this flight to view local times or setup timezone preferences in your user account.

Time Position Orientation Groundspeed Altitude Reporting Facility
EDT Latitude Longitude Course Direction KTS MPH feet Rate Location/Type
07:22AM 42.9500 -71.4500 200° South 169 194 1,300  Level KA90
07:25AM 43.0779 -71.0051 71° East  Level FlightAware Approximate
07:25AM 43.0650 -71.4511 360° North 225 259 5,400  Level Boston Center
07:26AM 43.0070 -70.8904 144° Southeast  Level FlightAware Approximate
07:26AM 43.1333 -71.3789 38° Northeast 252 290 8,100  Level Boston Center
07:27AM 42.8999 -70.9131 202° Southwest  Level FlightAware Approximate
07:27AM 43.1344 -71.2764 89° East 239 275 10,400  Level Boston Center
07:28AM 42.7877 -70.9646 200° South  Level FlightAware Approximate
07:28AM 43.0789 -71.1525 122° Southeast 324 373 11,500  Level Boston Center
07:29AM 43.0686 -70.9906 95° East 356 410 13,000 1,920 Climbing Boston Center
07:30AM 42.9922 -70.8986 139° Southeast 380 437 15,400 2,160 Climbing Boston Center
07:31AM 42.8697 -70.9386 193° South 372 428 17,400 1,920 Climbing Boston Center
07:32AM 42.7558 -70.9950 200° South 420 483 19,300 1,680 Climbing Boston Center
07:33AM 42.6378 -71.0544 200° South 433 498 20,800 1,320 Climbing Boston Center
07:34AM 42.5219 -71.1244 204° Southwest 451 519 22,000 1,200 Climbing Boston Center
07:35AM 42.4675 -71.2778 244° Southwest 424 488 23,300 1,500 Climbing Boston Center
07:36AM 42.4356 -71.4469 256° West 441 507 25,000 1,440 Climbing Boston Center
07:37AM 42.3994 -71.5911 251° West 447 514 26,200 1,260 Climbing Boston Center
07:38AM 42.3442 -71.7464 244° Southwest 453 521 27,600 1,200 Climbing Boston Center
07:39AM 42.2803 -71.8986 240° Southwest 465 535 28,700 1,080 Climbing Boston Center
07:40AM 42.2142 -72.0506 240° Southwest 470 541 29,800 1,080 Climbing Boston Center
07:41AM 42.1500 -72.2022 240° Southwest 470 541 30,900 1,080 Climbing Boston Center
07:42AM 42.0794 -72.3617 239° Southwest 464 534 32,000 540 Climbing Boston Center
07:43AM 42.0086 -72.5044 236° Southwest 464 534 32,000  Level Boston Center
07:44AM 41.9481 -72.6131 233° Southwest 464 534 32,000  Level Boston Center
07:45AM 41.8600 -72.7717 233° Southwest 458 527 32,000  Level Boston Center
07:46AM 41.7783 -72.9161 233° Southwest 465 535 32,000  Level Boston Center
07:47AM 41.7028 -73.0492 233° Southwest 470 541 32,000  Level Boston Center
07:48AM 41.6269 -73.1844 233° Southwest 465 535 32,000  Level Boston Center
07:50AM 41.4747 -73.4542 233° Southwest 438 504 32,000  Level New York Center
07:51AM 41.3989 -73.5867 233° Southwest 454 522 32,000  Level New York Center
07:52AM 41.3206 -73.7214 232° Southwest 459 528 32,000  Level New York Center
07:53AM 41.2442 -73.8533 232° Southwest 459 528 32,000  Level New York Center
07:54AM 41.1658 -73.9875 232° Southwest 459 528 32,000  Level New York Center
07:55AM 41.0892 -74.1186 232° Southwest 459 528 32,000  Level New York Center
07:56AM 41.0014 -74.2683 232° Southwest 464 534 32,000  Level New York Center
07:57AM 40.9225 -74.4014 232° Southwest 470 541 32,000  Level New York Center
07:58AM 40.8433 -74.5372 232° Southwest 470 541 32,000  Level New York Center
07:59AM 40.7639 -74.6697 232° Southwest 470 541 32,000  Level New York Center
08:00AM 40.6911 -74.7889 231° Southwest 470 541 32,000  Level New York Center
08:01AM 40.6050 -74.9314 232° Southwest 470 541 32,000  Level New York Center
08:02AM 40.5319 -75.0497 231° Southwest 470 541 32,000  Level New York Center
08:03AM 40.4542 -75.1814 232° Southwest 470 541 32,000  Level New York Center
08:04AM 40.3653 -75.3256 231° Southwest 470 541 32,000  Level New York Center
08:05AM 40.2831 -75.4561 230° Southwest 470 541 32,000  Level New York Center
08:06AM 40.2069 -75.5897 233° Southwest 470 541 32,000  Level New York Center
08:07AM 40.1453 -75.7158 237° Southwest 464 534 32,000  Level New York Center
08:08AM 40.0681 -75.8675 236° Southwest 457 526 32,000  Level New York Center
08:09AM 39.9997 -75.9981 236° Southwest 457 526 32,000  Level New York Center
08:11AM 39.8367 -76.2778 233° Southwest 458 527 32,000  Level Washington Center
08:12AM 39.7525 -76.4039 229° Southwest 458 527 32,000  Level Washington Center
08:13AM 39.6894 -76.5056 231° Southwest 465 535 32,000  Level Washington Center
08:14AM 39.5944 -76.6417 228° Southwest 470 541 32,000  Level Washington Center
08:15AM 39.5122 -76.7644 229° Southwest 470 541 32,000  Level Washington Center
08:16AM 39.4275 -76.8919 229° Southwest 470 541 32,000  Level Washington Center
08:17AM 39.3447 -77.0167 229° Southwest 470 541 32,000  Level Washington Center
08:18AM 39.2619 -77.1411 229° Southwest 470 541 32,000  Level Washington Center
08:19AM 39.1789 -77.2650 229° Southwest 465 535 32,000  Level Washington Center
08:20AM 39.0958 -77.3861 229° Southwest 465 535 32,000  Level Washington Center
08:21AM 39.0128 -77.5097 229° Southwest 465 535 32,000  Level Washington Center
08:22AM 38.9272 -77.6328 228° Southwest 465 535 32,000  Level Washington Center
08:23AM 38.8353 -77.7689 229° Southwest 471 542 32,000  Level Washington Center
08:24AM 38.7475 -77.8994 229° Southwest 479 551 32,000  Level Washington Center
08:25AM 38.6658 -78.0167 228° Southwest 468 539 32,000  Level Washington Center
08:26AM 38.5842 -78.1386 229° Southwest 458 527 32,000  Level Washington Center
08:27AM 38.5003 -78.2606 229° Southwest 458 527 32,000  Level Washington Center
08:28AM 38.4161 -78.3819 229° Southwest 453 521 32,000  Level Washington Center
08:29AM 38.3319 -78.5006 228° Southwest 453 521 32,000  Level Washington Center
08:30AM 38.2517 -78.6219 230° Southwest 448 516 32,000  Level Washington Center
08:31AM 38.1761 -78.7297 228° Southwest 448 516 32,000  Level Washington Center
08:32AM 38.0894 -78.8475 227° Southwest 453 521 32,000  Level Washington Center
08:33AM 38.0069 -78.9678 229° Southwest 453 521 32,000  Level Washington Center
08:34AM 37.9200 -79.0850 227° Southwest 453 521 32,000  Level Washington Center
08:35AM 37.8267 -79.2147 228° Southwest 453 521 32,000  Level Washington Center
08:36AM 37.7436 -79.3317 228° Southwest 453 521 32,000  Level Washington Center
08:37AM 37.6567 -79.4478 227° Southwest 453 521 32,000  Level Washington Center
08:38AM 37.5781 -79.5539 227° Southwest 458 527 32,000 420 Level Washington Center
08:39AM 37.4839 -79.6853 228° Southwest 458 527 32,900 720 Climbing Washington Center
08:40AM 37.3942 -79.8058 227° Southwest 469 540 33,500 540 Climbing Washington Center
08:41AM 37.3086 -79.9211 227° Southwest 469 540 34,000 120 Climbing Washington Center
08:43AM 37.1294 -80.1653 227° Southwest 460 529 34,000  Level Atlanta Center
08:44AM 37.0453 -80.2786 227° Southwest 455 524 34,000  Level Atlanta Center
08:45AM 36.9692 -80.3808 227° Southwest 455 524 34,000  Level Atlanta Center
08:46AM 36.8850 -80.4939 227° Southwest 455 524 34,000  Level Atlanta Center
08:47AM 36.8006 -80.6064 227° Southwest 455 524 34,000  Level Atlanta Center
08:48AM 36.7122 -80.7267 228° Southwest 439 505 34,000  Level Atlanta Center
08:49AM 36.6275 -80.8389 227° Southwest 439 505 34,000  Level Atlanta Center
08:50AM 36.5431 -80.9533 227° Southwest 434 499 34,000  Level Atlanta Center
08:51AM 36.4581 -81.0625 226° Southwest 439 505 34,000  Level Atlanta Center
08:52AM 36.3753 -81.1739 227° Southwest 433 498 34,000  Level Atlanta Center
08:53AM 36.2903 -81.2850 227° Southwest 433 498 34,000  Level Atlanta Center
08:54AM 36.2069 -81.3933 226° Southwest 433 498 34,000  Level Atlanta Center
08:55AM 36.1197 -81.5069 226° Southwest 439 505 34,000  Level Atlanta Center
08:56AM 36.0364 -81.6172 227° Southwest 439 505 34,000  Level Atlanta Center
08:57AM 35.9489 -81.7278 226° Southwest 450 518 34,000  Level Atlanta Center
08:58AM 35.8653 -81.8375 227° Southwest 450 518 34,000  Level Atlanta Center
08:59AM 35.7878 -81.9344 225° Southwest 444 511 34,000  Level Atlanta Center
09:00AM 35.7042 -82.0414 226° Southwest 436 502 34,000  Level Atlanta Center
09:01AM 35.6119 -82.1458 223° Southwest 447 514 34,000  Level Atlanta Center
09:02AM 35.5217 -82.2475 223° Southwest 447 514 34,000 -600 Level Atlanta Center
09:03AM 35.4292 -82.3514 222° Southwest 447 514 32,800 -1,200 Descending Atlanta Center
09:04AM 35.3386 -82.4525 222° Southwest 447 514 31,700 -960 Descending Atlanta Center
09:05AM 35.2461 -82.5586 223° Southwest 453 521 30,900 -840 Descending Atlanta Center
09:06AM 35.1556 -82.6569 222° Southwest 448 516 30,100 -900 Descending Atlanta Center
09:07AM 35.0669 -82.7597 224° Southwest 448 516 29,100 -1,080 Descending Atlanta Center
09:08AM 34.9617 -82.8756 222° Southwest 460 529 28,000 -1,140 Descending Atlanta Center
09:09AM 34.8625 -82.9781 220° Southwest 466 536 26,900 -960 Descending Atlanta Center
09:10AM 34.7714 -83.0856 224° Southwest 461 531 26,100 -780 Descending Atlanta Center
09:11AM 34.6783 -83.1900 223° Southwest 462 532 25,400 -960 Descending Atlanta Center
09:12AM 34.5808 -83.2944 221° Southwest 462 532 24,200 -1,800 Descending Atlanta Center
09:13AM 34.4917 -83.3986 224° Southwest 462 532 21,800 -2,400 Descending Atlanta Center
09:14AM 34.4108 -83.4847 221° Southwest 451 519 19,400 -2,400 Descending Atlanta Center
09:15AM 34.3278 -83.5836 225° Southwest 430 495 17,100 -2,400 Descending Atlanta Center
09:16AM 34.2467 -83.6694 221° Southwest 410 472 14,600 -2,100 Descending Atlanta Center
09:17AM 34.1675 -83.7550 222° Southwest 389 448 13,000 -840 Descending Atlanta Center
09:18AM 34.0864 -83.8406 221° Southwest 389 448 13,000 -780 Level Atlanta Center
09:19AM 34.0333 -83.9000 223° Southwest 377 434 11,800 -1,980 Descending Atlanta TRACON
09:20AM 33.9500 -83.9833 220° Southwest 359 413 9,900 -960 Descending Atlanta TRACON
09:21AM 33.8667 -83.9833 180° South 316 364 10,000 -120 Climbing Atlanta TRACON
09:21AM 33.8339 -83.9964 198° South 324 373 9,800 -1,140 Descending Atlanta Center
09:22AM 33.7547 -84.0089 187° South 299 344 8,300 -1,440 Descending Atlanta Center
09:23AM 33.6814 -84.0189 186° South 282 325 7,000 -1,320 Descending Atlanta Center
09:24AM 33.6397 -84.0886 234° Southwest 250 288 5,700 -1,140 Descending Atlanta Center
09:25AM 33.6314 -84.1711 263° West 241 277 4,800 -900 Descending Atlanta Center